createdAt,value
2022-09-27T00:00:16.023Z,0.00
2022-09-27T00:01:16.388Z,0.00
2022-09-27T00:02:16.676Z,0.00
2022-09-27T00:03:17.896Z,0.00
2022-09-27T00:04:19.115Z,0.00
2022-09-27T00:05:17.395Z,0.00
2022-09-27T00:06:19.577Z,0.00
2022-09-27T00:07:17.954Z,0.00
2022-09-27T00:08:19.210Z,0.00
2022-09-27T00:09:20.462Z,0.00
2022-09-27T00:10:18.838Z,0.00
2022-09-27T00:11:19.134Z,0.00
2022-09-27T00:12:19.825Z,0.00
2022-09-27T00:13:20.685Z,0.00
2022-09-27T00:14:21.909Z,0.00
2022-09-27T00:15:20.171Z,0.00
2022-09-27T00:16:20.545Z,0.00
2022-09-27T00:17:22.675Z,0.00
2022-09-27T00:18:23.072Z,0.00
2022-09-27T00:19:21.334Z,0.00
2022-09-27T00:20:21.642Z,0.00
2022-09-27T00:21:21.946Z,0.00
2022-09-27T00:22:24.130Z,0.00
2022-09-27T00:23:24.418Z,0.00
2022-09-27T00:24:24.553Z,0.00
2022-09-27T00:25:23.052Z,0.00
2022-09-27T00:26:23.326Z,0.00
2022-09-27T00:27:23.644Z,0.00
2022-09-27T00:28:26.811Z,0.00
2022-09-27T00:29:26.204Z,0.00
2022-09-27T00:30:26.242Z,0.00
2022-09-27T00:31:25.019Z,0.00
2022-09-27T00:32:24.991Z,0.00
2022-09-27T00:33:27.238Z,0.00
2022-09-27T00:34:25.612Z,0.00
2022-09-27T00:35:27.809Z,0.00
2022-09-27T00:36:26.176Z,0.00
2022-09-27T00:37:26.488Z,0.00
2022-09-27T00:38:27.555Z,0.00
2022-09-27T00:39:27.059Z,0.00
2022-09-27T00:40:27.405Z,0.00
2022-09-27T00:41:27.776Z,0.00
2022-09-27T00:42:27.939Z,0.00
2022-09-27T00:43:30.174Z,0.00
2022-09-27T00:44:28.558Z,0.00
2022-09-27T00:45:28.861Z,0.00
2022-09-27T00:46:31.201Z,0.00
2022-09-27T00:47:29.454Z,0.00
2022-09-27T00:48:33.173Z,0.00
2022-09-27T00:49:31.902Z,0.00
2022-09-27T00:50:32.102Z,0.00
2022-09-27T00:51:32.284Z,0.00
2022-09-27T00:52:31.042Z,0.00
2022-09-27T00:53:34.213Z,0.00
2022-09-27T00:54:33.444Z,0.00
2022-09-27T00:55:31.984Z,0.00
2022-09-27T00:56:34.170Z,0.00
2022-09-27T00:57:32.532Z,0.00
2022-09-27T00:58:32.891Z,0.00
2022-09-27T00:59:35.055Z,0.00
2022-09-27T01:00:35.244Z,0.00
2022-09-27T01:01:35.460Z,0.00
2022-09-27T01:02:35.675Z,0.00
2022-09-27T01:03:36.406Z,0.00
2022-09-27T01:04:35.521Z,0.00
2022-09-27T01:05:36.723Z,0.00
2022-09-27T01:06:36.902Z,0.00
2022-09-27T01:07:37.052Z,0.00
2022-09-27T01:08:36.837Z,0.00
2022-09-27T01:09:38.061Z,0.00
2022-09-27T01:10:38.277Z,0.00
2022-09-27T01:11:38.443Z,0.00
2022-09-27T01:12:38.628Z,0.00
2022-09-27T01:13:39.787Z,0.00
2022-09-27T01:14:39.521Z,0.00
2022-09-27T01:15:39.771Z,0.00
2022-09-27T01:16:39.876Z,0.00
2022-09-27T01:17:40.070Z,0.00
2022-09-27T01:18:42.216Z,0.00
2022-09-27T01:19:39.097Z,0.00
2022-09-27T01:20:41.284Z,0.00
2022-09-27T01:21:39.656Z,0.00
2022-09-27T01:22:41.838Z,0.00
2022-09-27T01:23:41.995Z,0.00
2022-09-27T01:24:42.139Z,0.00
2022-09-27T01:25:42.314Z,0.00
2022-09-27T01:26:43.036Z,0.00
2022-09-27T01:27:41.396Z,0.00
2022-09-27T01:28:43.603Z,0.00
2022-09-27T01:29:43.786Z,0.00
2022-09-27T01:30:43.998Z,0.00
2022-09-27T01:31:44.165Z,0.00
2022-09-27T01:32:44.859Z,0.00
2022-09-27T01:33:45.096Z,0.00
2022-09-27T01:34:43.455Z,0.00
2022-09-27T01:35:45.655Z,0.00
2022-09-27T01:36:45.837Z,0.00
2022-09-27T01:37:44.421Z,0.00
2022-09-27T01:38:46.605Z,0.00
2022-09-27T01:39:44.881Z,0.00
2022-09-27T01:40:45.201Z,0.00
2022-09-27T01:41:45.469Z,0.00
2022-09-27T01:42:45.779Z,0.00
2022-09-27T01:43:47.976Z,0.00
2022-09-27T01:44:46.363Z,0.00
2022-09-27T01:45:46.714Z,0.00
2022-09-27T01:46:48.848Z,0.00
2022-09-27T01:47:47.214Z,0.00
2022-09-27T01:48:49.393Z,0.00
2022-09-27T01:49:47.755Z,0.00
2022-09-27T01:50:51.383Z,0.00
2022-09-27T01:51:48.287Z,0.00
2022-09-27T01:52:48.580Z,0.00
2022-09-27T01:53:50.737Z,0.00
2022-09-27T01:54:50.932Z,0.00
2022-09-27T01:55:49.419Z,0.00
2022-09-27T01:56:51.642Z,0.00
2022-09-27T01:57:49.981Z,0.00
2022-09-27T01:58:52.171Z,0.00
2022-09-27T01:59:52.352Z,0.00
2022-09-27T02:00:50.863Z,0.00
2022-09-27T02:01:51.194Z,0.00
2022-09-27T02:02:53.497Z,0.00
2022-09-27T02:03:53.467Z,0.00
2022-09-27T02:04:53.654Z,0.00
2022-09-27T02:05:52.260Z,0.00
2022-09-27T02:06:53.407Z,0.00
2022-09-27T02:07:52.891Z,0.00
2022-09-27T02:08:55.091Z,0.00
2022-09-27T02:09:55.284Z,0.00
2022-09-27T02:10:53.802Z,0.00
2022-09-27T02:11:56.070Z,0.00
2022-09-27T02:12:55.392Z,0.00
2022-09-27T02:13:54.619Z,0.00
2022-09-27T02:14:56.803Z,0.00
2022-09-27T02:15:55.237Z,0.00
2022-09-27T02:16:55.516Z,0.00
2022-09-27T02:17:56.802Z,0.00
2022-09-27T02:18:56.127Z,0.00
2022-09-27T02:19:58.467Z,0.00
2022-09-27T02:20:56.737Z,0.00
2022-09-27T02:21:57.047Z,0.00
2022-09-27T02:22:58.346Z,0.00
2022-09-27T02:23:57.563Z,0.00
2022-09-27T02:24:59.757Z,0.00
2022-09-27T02:25:58.134Z,0.00
2022-09-27T02:26:58.428Z,0.00
2022-09-27T02:27:59.708Z,0.00
2022-09-27T02:29:00.959Z,0.00
2022-09-27T02:30:01.134Z,0.00
2022-09-27T02:31:01.359Z,0.00
2022-09-27T02:32:01.503Z,0.00
2022-09-27T02:33:03.711Z,0.00
2022-09-27T02:34:02.425Z,0.00
2022-09-27T02:35:02.631Z,0.00
2022-09-27T02:36:02.810Z,0.00
2022-09-27T02:37:03.950Z,0.00
2022-09-27T02:38:04.663Z,0.00
2022-09-27T02:39:03.905Z,0.00
2022-09-27T02:40:04.089Z,0.00
2022-09-27T02:41:04.553Z,0.00
2022-09-27T02:42:04.450Z,0.00
2022-09-27T02:43:04.578Z,0.00
2022-09-27T02:44:05.308Z,0.00
2022-09-27T02:45:05.497Z,0.00
2022-09-27T02:46:05.770Z,0.00
2022-09-27T02:47:04.138Z,0.00
2022-09-27T02:48:04.570Z,0.00
2022-09-27T02:49:06.691Z,0.00
2022-09-27T02:50:04.945Z,0.00
2022-09-27T02:51:07.129Z,0.00
2022-09-27T02:52:05.527Z,0.00
2022-09-27T02:53:06.687Z,0.00
2022-09-27T02:54:06.071Z,0.00
2022-09-27T02:55:06.378Z,0.00
2022-09-27T02:56:06.670Z,0.00
2022-09-27T02:57:08.857Z,0.00
2022-09-27T02:58:10.021Z,0.00
2022-09-27T02:59:09.261Z,0.00
2022-09-27T03:00:09.457Z,0.00
2022-09-27T03:01:10.365Z,0.00
2022-09-27T03:02:13.565Z,0.00
2022-09-27T03:03:09.842Z,0.00
2022-09-27T03:04:11.009Z,0.00
2022-09-27T03:05:11.433Z,0.00
2022-09-27T03:06:11.153Z,0.00
2022-09-27T03:07:13.345Z,0.00
2022-09-27T03:08:12.159Z,0.00
2022-09-27T03:09:12.322Z,0.00
2022-09-27T03:10:12.513Z,0.00
2022-09-27T03:11:12.835Z,0.00
2022-09-27T03:12:13.411Z,0.00
2022-09-27T03:13:14.576Z,0.00
2022-09-27T03:14:12.085Z,0.00
2022-09-27T03:15:14.274Z,0.00
2022-09-27T03:16:14.465Z,0.00
2022-09-27T03:17:13.105Z,0.00
2022-09-27T03:18:16.645Z,0.00
2022-09-27T03:19:13.592Z,0.00
2022-09-27T03:20:15.735Z,0.00
2022-09-27T03:21:15.080Z,0.00
2022-09-27T03:22:14.463Z,0.00
2022-09-27T03:23:14.909Z,0.00
2022-09-27T03:24:15.059Z,0.00
2022-09-27T03:25:17.243Z,0.00
2022-09-27T03:26:15.633Z,0.00
2022-09-27T03:27:15.960Z,0.00
2022-09-27T03:28:17.270Z,0.00
2022-09-27T03:29:18.706Z,0.00
2022-09-27T03:30:16.861Z,0.00
2022-09-27T03:31:19.101Z,0.00
2022-09-27T03:32:17.494Z,0.00
2022-09-27T03:33:18.787Z,0.00
2022-09-27T03:34:20.006Z,0.00
2022-09-27T03:35:21.670Z,0.00
2022-09-27T03:36:18.619Z,0.00
2022-09-27T03:37:20.786Z,0.00
2022-09-27T03:38:21.950Z,0.00
2022-09-27T03:39:19.383Z,0.00
2022-09-27T03:40:21.649Z,0.00
2022-09-27T03:41:22.687Z,0.00
2022-09-27T03:42:22.868Z,0.00
2022-09-27T03:43:24.118Z,0.00
2022-09-27T03:44:20.899Z,0.00
2022-09-27T03:45:21.219Z,0.00
2022-09-27T03:46:21.590Z,0.00
2022-09-27T03:47:23.728Z,0.00
2022-09-27T03:48:27.949Z,0.00
2022-09-27T03:49:23.300Z,0.00
2022-09-27T03:50:22.677Z,0.00
2022-09-27T03:51:22.994Z,0.00
2022-09-27T03:52:25.356Z,0.00
2022-09-27T03:53:26.861Z,0.00
2022-09-27T03:54:23.917Z,0.00
2022-09-27T03:55:24.227Z,0.00
2022-09-27T03:56:24.564Z,0.00
2022-09-27T03:57:24.759Z,0.00
2022-09-27T03:58:26.638Z,0.00
2022-09-27T03:59:25.405Z,0.00
2022-09-27T04:00:25.729Z,0.00
2022-09-27T04:01:27.987Z,0.00
2022-09-27T04:02:26.444Z,0.00
2022-09-27T04:03:29.547Z,0.00
2022-09-27T04:04:28.786Z,0.00
2022-09-27T04:05:27.285Z,0.00
2022-09-27T04:06:29.463Z,0.00
2022-09-27T04:07:27.841Z,0.00
2022-09-27T04:08:31.021Z,0.00
2022-09-27T04:09:28.408Z,0.00
2022-09-27T04:10:30.620Z,0.00
2022-09-27T04:11:30.818Z,0.00
2022-09-27T04:12:29.309Z,0.00
2022-09-27T04:13:32.984Z,0.00
2022-09-27T04:14:29.910Z,0.00
2022-09-27T04:15:31.044Z,0.00
2022-09-27T04:16:32.453Z,0.00
2022-09-27T04:17:32.595Z,0.00
2022-09-27T04:18:33.759Z,0.00
2022-09-27T04:19:32.995Z,0.00
2022-09-27T04:20:33.657Z,0.00
2022-09-27T04:21:33.915Z,0.00
2022-09-27T04:22:33.972Z,0.00
2022-09-27T04:23:35.135Z,0.00
2022-09-27T04:24:34.876Z,0.00
2022-09-27T04:25:35.036Z,0.00
2022-09-27T04:26:35.238Z,0.00
2022-09-27T04:27:35.410Z,0.00
2022-09-27T04:28:36.627Z,0.00
2022-09-27T04:29:34.381Z,0.00
2022-09-27T04:30:34.748Z,0.00
2022-09-27T04:31:35.024Z,0.00
2022-09-27T04:32:36.295Z,0.00
2022-09-27T04:33:39.047Z,0.00
2022-09-27T04:34:41.905Z,0.00
2022-09-27T04:35:37.188Z,0.00
2022-09-27T04:36:38.373Z,0.00
2022-09-27T04:37:38.552Z,0.00
2022-09-27T04:38:39.075Z,0.00
2022-09-27T04:39:39.133Z,0.00
2022-09-27T04:40:39.705Z,0.00
2022-09-27T04:41:39.776Z,0.00
2022-09-27T04:42:39.959Z,0.00
2022-09-27T04:43:41.118Z,0.00
2022-09-27T04:44:40.828Z,0.00
2022-09-27T04:45:41.977Z,0.00
2022-09-27T04:46:41.259Z,0.00
2022-09-27T04:47:41.520Z,0.00
2022-09-27T04:48:43.036Z,0.00
2022-09-27T04:49:42.278Z,0.00
2022-09-27T04:50:42.456Z,0.00
2022-09-27T04:51:42.622Z,0.00
2022-09-27T04:52:43.010Z,0.00
2022-09-27T04:53:43.190Z,0.00
2022-09-27T04:54:43.375Z,0.00
2022-09-27T04:55:44.063Z,0.00
2022-09-27T04:56:44.262Z,0.00
2022-09-27T04:57:44.450Z,0.00
2022-09-27T04:58:44.636Z,0.00
2022-09-27T04:59:45.320Z,0.00
2022-09-27T05:00:45.506Z,0.00
2022-09-27T05:01:45.777Z,0.00
2022-09-27T05:02:44.407Z,0.00
2022-09-27T05:03:44.701Z,0.00
2022-09-27T05:04:46.893Z,0.00
2022-09-27T05:05:47.067Z,0.00
2022-09-27T05:06:47.262Z,0.00
2022-09-27T05:07:47.457Z,0.00
2022-09-27T05:08:47.712Z,0.00
2022-09-27T05:09:48.444Z,0.00
2022-09-27T05:10:48.607Z,0.00
2022-09-27T05:11:48.764Z,0.00
2022-09-27T05:12:48.948Z,0.00
2022-09-27T05:13:49.129Z,0.00
2022-09-27T05:14:49.822Z,0.00
2022-09-27T05:15:50.007Z,0.00
2022-09-27T05:16:50.220Z,0.00
2022-09-27T05:17:50.361Z,0.00
2022-09-27T05:18:51.050Z,0.00
2022-09-27T05:19:52.693Z,0.00
2022-09-27T05:20:51.419Z,0.00
2022-09-27T05:21:50.087Z,0.00
2022-09-27T05:22:52.274Z,5.62
2022-09-27T05:23:53.701Z,5.62
2022-09-27T05:24:51.013Z,5.62
2022-09-27T05:25:51.744Z,5.62
2022-09-27T05:26:51.518Z,5.62
2022-09-27T05:27:51.855Z,5.62
2022-09-27T05:28:53.220Z,5.62
2022-09-27T05:29:52.503Z,5.62
2022-09-27T05:30:54.882Z,5.62
2022-09-27T05:31:55.794Z,5.62
2022-09-27T05:32:53.472Z,5.62
2022-09-27T05:33:54.730Z,5.62
2022-09-27T05:34:53.997Z,11.25
2022-09-27T05:35:54.329Z,11.25
2022-09-27T05:36:56.512Z,11.25
2022-09-27T05:37:56.847Z,11.25
2022-09-27T05:38:56.255Z,11.25
2022-09-27T05:39:56.467Z,11.25
2022-09-27T05:40:56.744Z,11.25
2022-09-27T05:41:56.042Z,11.25
2022-09-27T05:42:56.266Z,11.25
2022-09-27T05:43:59.916Z,11.25
2022-09-27T05:44:56.851Z,16.88
2022-09-27T05:45:57.217Z,16.88
2022-09-27T05:46:57.517Z,16.88
2022-09-27T05:47:57.849Z,16.88
2022-09-27T05:49:00.120Z,16.88
2022-09-27T05:49:58.514Z,16.88
2022-09-27T05:50:58.846Z,16.88
2022-09-27T05:51:59.078Z,16.88
2022-09-27T05:52:59.301Z,22.50
2022-09-27T05:54:01.571Z,22.50
2022-09-27T05:54:59.931Z,22.50
2022-09-27T05:56:00.135Z,22.50
2022-09-27T05:57:00.485Z,22.50
2022-09-27T05:58:02.655Z,28.12
2022-09-27T05:59:01.127Z,28.12
2022-09-27T06:00:03.272Z,28.12
2022-09-27T06:01:03.487Z,28.12
2022-09-27T06:02:01.930Z,33.75
2022-09-27T06:03:02.144Z,33.75
2022-09-27T06:04:05.220Z,33.75
2022-09-27T06:05:04.577Z,33.75
2022-09-27T06:06:03.850Z,33.75
2022-09-27T06:07:03.143Z,39.38
2022-09-27T06:08:03.360Z,39.38
2022-09-27T06:09:07.030Z,39.38
2022-09-27T06:10:05.747Z,39.38
2022-09-27T06:11:05.268Z,39.38
2022-09-27T06:12:04.571Z,45.00
2022-09-27T06:13:04.807Z,45.00
2022-09-27T06:14:06.049Z,45.00
2022-09-27T06:15:07.252Z,50.62
2022-09-27T06:16:07.436Z,50.62
2022-09-27T06:17:07.851Z,50.62
2022-09-27T06:18:08.038Z,56.25
2022-09-27T06:19:08.262Z,56.25
2022-09-27T06:20:08.435Z,56.25
2022-09-27T06:21:09.102Z,61.88
2022-09-27T06:22:09.292Z,61.88
2022-09-27T06:23:09.477Z,61.88
2022-09-27T06:24:10.662Z,61.88
2022-09-27T06:25:08.252Z,67.50
2022-09-27T06:26:08.480Z,67.50
2022-09-27T06:27:10.668Z,67.50
2022-09-27T06:28:11.124Z,67.50
2022-09-27T06:29:10.835Z,67.50
2022-09-27T06:30:09.623Z,67.50
2022-09-27T06:31:09.939Z,67.50
2022-09-27T06:32:10.108Z,67.50
2022-09-27T06:33:12.312Z,67.50
2022-09-27T06:34:11.573Z,67.50
2022-09-27T06:35:10.853Z,73.12
2022-09-27T06:36:11.111Z,73.12
2022-09-27T06:37:13.272Z,78.75
2022-09-27T06:38:11.599Z,78.75
2022-09-27T06:39:12.834Z,84.38
2022-09-27T06:40:14.141Z,90.00
2022-09-27T06:41:14.249Z,95.62
2022-09-27T06:42:14.434Z,95.62
2022-09-27T06:43:14.594Z,101.25
2022-09-27T06:44:15.726Z,106.88
2022-09-27T06:45:13.531Z,112.50
2022-09-27T06:46:16.718Z,118.12
2022-09-27T06:47:15.863Z,123.75
2022-09-27T06:48:16.027Z,123.75
2022-09-27T06:49:17.365Z,135.00
2022-09-27T06:50:14.878Z,140.62
2022-09-27T06:51:15.107Z,146.25
2022-09-27T06:52:17.283Z,151.88
2022-09-27T06:53:17.474Z,157.50
2022-09-27T06:54:18.637Z,163.12
2022-09-27T06:55:16.237Z,168.75
2022-09-27T06:56:16.475Z,174.38
2022-09-27T06:57:18.675Z,174.38
2022-09-27T06:58:18.854Z,180.00
2022-09-27T06:59:20.051Z,185.62
2022-09-27T07:00:17.769Z,185.62
2022-09-27T07:01:19.056Z,191.25
2022-09-27T07:02:19.227Z,191.25
2022-09-27T07:03:18.607Z,191.25
2022-09-27T07:04:20.968Z,191.25
2022-09-27T07:05:19.260Z,191.25
2022-09-27T07:06:19.493Z,191.25
2022-09-27T07:07:21.697Z,185.62
2022-09-27T07:08:22.141Z,185.62
2022-09-27T07:09:21.468Z,180.00
2022-09-27T07:10:20.741Z,180.00
2022-09-27T07:11:22.045Z,174.38
2022-09-27T07:12:23.294Z,174.38
2022-09-27T07:13:23.465Z,174.38
2022-09-27T07:14:23.848Z,174.38
2022-09-27T07:15:23.870Z,174.38
2022-09-27T07:16:24.190Z,168.75
2022-09-27T07:17:24.234Z,168.75
2022-09-27T07:18:24.899Z,168.75
2022-09-27T07:19:25.150Z,163.12
2022-09-27T07:20:23.563Z,163.12
2022-09-27T07:21:27.240Z,163.12
2022-09-27T07:22:24.194Z,157.50
2022-09-27T07:23:26.630Z,157.50
2022-09-27T07:24:26.627Z,157.50
2022-09-27T07:25:25.069Z,157.50
2022-09-27T07:26:27.250Z,157.50
2022-09-27T07:27:25.600Z,157.50
2022-09-27T07:28:27.735Z,157.50
2022-09-27T07:29:27.919Z,157.50
2022-09-27T07:30:26.744Z,163.12
2022-09-27T07:31:26.649Z,163.12
2022-09-27T07:32:28.837Z,163.12
2022-09-27T07:33:29.018Z,163.12
2022-09-27T07:34:29.205Z,168.75
2022-09-27T07:35:27.747Z,168.75
2022-09-27T07:36:30.872Z,174.38
2022-09-27T07:37:31.061Z,180.00
2022-09-27T07:38:31.212Z,185.62
2022-09-27T07:39:30.472Z,185.62
2022-09-27T07:40:29.195Z,191.25
2022-09-27T07:41:29.390Z,196.88
2022-09-27T07:42:29.628Z,196.88
2022-09-27T07:43:31.852Z,202.50
2022-09-27T07:44:30.287Z,208.12
2022-09-27T07:45:30.544Z,213.75
2022-09-27T07:46:30.782Z,219.38
2022-09-27T07:47:32.979Z,225.00
2022-09-27T07:48:33.153Z,230.62
2022-09-27T07:49:31.570Z,236.25
2022-09-27T07:50:31.945Z,241.88
2022-09-27T07:51:32.180Z,241.88
2022-09-27T07:52:33.249Z,241.88
2022-09-27T07:53:34.607Z,247.50
2022-09-27T07:54:33.825Z,253.12
2022-09-27T07:55:34.244Z,253.12
2022-09-27T07:56:33.654Z,258.75
2022-09-27T07:57:33.872Z,258.75
2022-09-27T07:58:36.063Z,258.75
2022-09-27T07:59:34.373Z,264.38
2022-09-27T08:00:34.621Z,264.38
2022-09-27T08:01:34.954Z,258.75
2022-09-27T08:02:35.202Z,258.75
2022-09-27T08:03:37.352Z,258.75
2022-09-27T08:04:35.665Z,258.75
2022-09-27T08:05:35.913Z,258.75
2022-09-27T08:06:36.141Z,258.75
2022-09-27T08:07:36.361Z,258.75
2022-09-27T08:08:38.547Z,258.75
2022-09-27T08:09:36.839Z,264.38
2022-09-27T08:10:39.042Z,264.38
2022-09-27T08:11:37.474Z,264.38
2022-09-27T08:12:37.703Z,270.00
2022-09-27T08:13:39.880Z,270.00
2022-09-27T08:14:43.930Z,270.00
2022-09-27T08:15:41.007Z,275.62
2022-09-27T08:16:38.859Z,275.62
2022-09-27T08:17:39.093Z,281.25
2022-09-27T08:18:39.314Z,281.25
2022-09-27T08:19:41.506Z,286.88
2022-09-27T08:20:41.692Z,286.88
2022-09-27T08:21:40.108Z,298.12
2022-09-27T08:22:41.416Z,303.75
2022-09-27T08:23:42.660Z,309.38
2022-09-27T08:24:42.867Z,315.00
2022-09-27T08:25:41.310Z,326.25
2022-09-27T08:26:43.589Z,331.88
2022-09-27T08:27:44.659Z,337.50
2022-09-27T08:28:43.959Z,343.12
2022-09-27T08:29:44.115Z,348.75
2022-09-27T08:30:44.330Z,348.75
2022-09-27T08:31:43.023Z,354.38
2022-09-27T08:32:44.719Z,360.00
2022-09-27T08:33:45.439Z,365.62
2022-09-27T08:34:43.860Z,376.88
2022-09-27T08:35:46.053Z,382.50
2022-09-27T08:36:44.382Z,393.75
2022-09-27T08:37:45.606Z,399.38
2022-09-27T08:38:46.830Z,410.62
2022-09-27T08:39:47.978Z,421.88
2022-09-27T08:40:47.358Z,427.50
2022-09-27T08:41:45.641Z,438.75
2022-09-27T08:42:45.981Z,444.38
2022-09-27T08:43:49.555Z,450.00
2022-09-27T08:44:46.394Z,455.62
2022-09-27T08:45:46.682Z,461.25
2022-09-27T08:46:46.891Z,461.25
2022-09-27T08:47:48.156Z,466.88
2022-09-27T08:48:48.889Z,472.50
2022-09-27T08:49:47.695Z,478.12
2022-09-27T08:50:49.861Z,495.00
2022-09-27T08:51:50.048Z,506.25
2022-09-27T08:52:50.260Z,517.50
2022-09-27T08:53:50.439Z,523.12
2022-09-27T08:54:50.632Z,528.75
2022-09-27T08:55:51.312Z,528.75
2022-09-27T08:56:52.964Z,534.38
2022-09-27T08:57:51.841Z,540.00
2022-09-27T08:58:50.167Z,551.25
2022-09-27T08:59:52.352Z,556.88
2022-09-27T09:00:52.628Z,556.88
2022-09-27T09:01:52.833Z,562.50
2022-09-27T09:02:53.166Z,562.50
2022-09-27T09:03:53.144Z,556.88
2022-09-27T09:04:53.832Z,545.62
2022-09-27T09:05:54.020Z,528.75
2022-09-27T09:06:52.453Z,528.75
2022-09-27T09:07:55.590Z,540.00
2022-09-27T09:08:54.827Z,562.50
2022-09-27T09:09:55.007Z,573.75
2022-09-27T09:10:55.202Z,590.62
2022-09-27T09:11:55.435Z,601.88
2022-09-27T09:12:56.529Z,607.50
2022-09-27T09:13:55.780Z,618.75
2022-09-27T09:14:56.457Z,635.62
2022-09-27T09:15:56.649Z,652.50
2022-09-27T09:16:56.849Z,663.75
2022-09-27T09:17:58.081Z,675.00
2022-09-27T09:18:55.653Z,680.62
2022-09-27T09:19:56.860Z,691.88
2022-09-27T09:20:58.041Z,708.75
2022-09-27T09:21:58.215Z,720.00
2022-09-27T09:22:59.387Z,731.25
2022-09-27T09:23:57.084Z,748.12
2022-09-27T09:24:59.272Z,753.75
2022-09-27T09:26:00.435Z,759.38
2022-09-27T09:26:59.680Z,759.38
2022-09-27T09:28:02.399Z,765.00
2022-09-27T09:28:58.417Z,770.62
2022-09-27T09:30:00.583Z,765.00
2022-09-27T09:31:00.755Z,770.62
2022-09-27T09:31:59.236Z,765.00
2022-09-27T09:33:01.388Z,748.12
2022-09-27T09:34:01.574Z,731.25
2022-09-27T09:35:03.219Z,703.12
2022-09-27T09:36:02.075Z,680.62
2022-09-27T09:37:00.520Z,635.62
2022-09-27T09:38:02.689Z,590.62
2022-09-27T09:39:01.009Z,551.25
2022-09-27T09:40:08.105Z,528.75
2022-09-27T09:41:03.988Z,528.75
2022-09-27T09:42:01.791Z,534.38
2022-09-27T09:43:03.989Z,523.12
2022-09-27T09:44:02.301Z,483.75
2022-09-27T09:45:05.452Z,438.75
2022-09-27T09:46:05.650Z,410.62
2022-09-27T09:47:04.879Z,410.62
2022-09-27T09:48:03.323Z,405.00
2022-09-27T09:49:03.577Z,410.62
2022-09-27T09:50:05.762Z,416.25
2022-09-27T09:51:04.091Z,416.25
2022-09-27T09:52:08.777Z,405.00
2022-09-27T09:53:04.604Z,382.50
2022-09-27T09:54:04.850Z,365.62
2022-09-27T09:55:07.040Z,343.12
2022-09-27T09:56:07.193Z,337.50
2022-09-27T09:57:05.625Z,354.38
2022-09-27T09:58:05.863Z,348.75
2022-09-27T09:59:06.105Z,343.12
2022-09-27T10:00:08.297Z,326.25
2022-09-27T10:01:09.508Z,309.38
2022-09-27T10:02:06.848Z,303.75
2022-09-27T10:03:07.064Z,309.38
2022-09-27T10:04:07.279Z,292.50
2022-09-27T10:05:09.475Z,230.62
2022-09-27T10:06:09.625Z,196.88
2022-09-27T10:07:09.064Z,191.25
2022-09-27T10:08:09.185Z,208.12
2022-09-27T10:09:08.608Z,247.50
2022-09-27T10:10:10.796Z,281.25
2022-09-27T10:11:10.114Z,320.62
2022-09-27T10:12:09.377Z,326.25
2022-09-27T10:13:09.627Z,337.50
2022-09-27T10:14:09.837Z,337.50
2022-09-27T10:15:12.032Z,337.50
2022-09-27T10:16:10.511Z,360.00
2022-09-27T10:17:10.708Z,388.12
2022-09-27T10:18:10.946Z,421.88
2022-09-27T10:19:11.196Z,466.88
2022-09-27T10:20:11.444Z,506.25
2022-09-27T10:21:13.620Z,545.62
2022-09-27T10:22:12.879Z,579.38
2022-09-27T10:23:14.116Z,601.88
2022-09-27T10:24:17.424Z,630.00
2022-09-27T10:25:14.519Z,658.12
2022-09-27T10:26:12.928Z,686.25
2022-09-27T10:27:15.127Z,708.75
2022-09-27T10:28:15.312Z,736.88
2022-09-27T10:29:13.747Z,765.00
2022-09-27T10:30:15.009Z,787.50
2022-09-27T10:31:16.219Z,810.00
2022-09-27T10:32:14.618Z,843.75
2022-09-27T10:33:16.809Z,871.88
2022-09-27T10:34:15.211Z,900.00
2022-09-27T10:35:19.163Z,933.75
2022-09-27T10:36:18.648Z,967.50
2022-09-27T10:37:15.989Z,1001.25
2022-09-27T10:38:18.118Z,1040.62
2022-09-27T10:39:16.564Z,1080.00
2022-09-27T10:40:17.662Z,1119.38
2022-09-27T10:41:20.520Z,1181.25
2022-09-27T10:42:17.339Z,1237.50
2022-09-27T10:43:17.579Z,1288.12
2022-09-27T10:44:18.114Z,1338.75
2022-09-27T10:45:19.050Z,1440.00
2022-09-27T10:46:20.276Z,1434.38
2022-09-27T10:47:18.599Z,1479.38
2022-09-27T10:48:18.865Z,1496.25
2022-09-27T10:49:21.042Z,1411.88
2022-09-27T10:50:45.974Z,1282.50
2022-09-27T10:51:22.430Z,1164.38
2022-09-27T10:52:21.595Z,1164.38
2022-09-27T10:53:21.755Z,1209.38
2022-09-27T10:54:20.445Z,1265.62
2022-09-27T10:55:21.571Z,1192.50
2022-09-27T10:56:22.925Z,1158.75
2022-09-27T10:57:21.241Z,1012.50
2022-09-27T10:58:21.496Z,978.75
2022-09-27T10:59:23.677Z,933.75
2022-09-27T11:00:22.918Z,933.75
2022-09-27T11:01:24.321Z,933.75
2022-09-27T11:02:24.457Z,939.38
2022-09-27T11:03:24.695Z,933.75
2022-09-27T11:04:24.911Z,933.75
2022-09-27T11:05:25.073Z,928.12
2022-09-27T11:06:25.256Z,905.62
2022-09-27T11:07:23.947Z,888.75
2022-09-27T11:08:26.173Z,838.12
2022-09-27T11:09:26.369Z,838.12
2022-09-27T11:10:26.524Z,871.88
2022-09-27T11:11:26.693Z,928.12
2022-09-27T11:12:25.461Z,995.62
2022-09-27T11:13:28.545Z,1040.62
2022-09-27T11:14:27.772Z,1057.50
2022-09-27T11:15:26.237Z,1068.75
2022-09-27T11:16:26.500Z,1085.62
2022-09-27T11:17:26.744Z,1096.88
2022-09-27T11:18:30.413Z,1108.12
2022-09-27T11:19:29.147Z,1113.75
2022-09-27T11:20:27.568Z,1091.25
2022-09-27T11:21:28.778Z,1096.88
2022-09-27T11:22:28.078Z,1113.75
2022-09-27T11:23:29.294Z,1068.75
2022-09-27T11:24:31.479Z,1051.88
2022-09-27T11:25:31.895Z,1012.50
2022-09-27T11:26:29.036Z,1006.88
2022-09-27T11:27:29.273Z,1136.25
2022-09-27T11:28:32.928Z,1006.88
2022-09-27T11:29:33.123Z,1012.50
2022-09-27T11:30:31.825Z,1023.75
2022-09-27T11:31:32.009Z,1029.38
2022-09-27T11:32:32.669Z,1035.00
2022-09-27T11:33:34.391Z,1040.62
2022-09-27T11:34:33.116Z,1051.88
2022-09-27T11:35:33.629Z,1080.00
2022-09-27T11:36:33.492Z,1096.88
2022-09-27T11:37:33.672Z,1102.50
2022-09-27T11:38:52.340Z,1102.50
2022-09-27T11:39:33.711Z,1113.75
2022-09-27T11:40:34.929Z,1125.00
2022-09-27T11:41:35.033Z,1136.25
2022-09-27T11:42:35.207Z,1147.50
2022-09-27T11:43:36.861Z,1175.62
2022-09-27T11:44:36.083Z,1192.50
2022-09-27T11:45:56.256Z,1226.25
2022-09-27T11:46:41.623Z,1265.62
2022-09-27T11:47:36.757Z,1305.00
2022-09-27T11:48:37.875Z,1327.50
2022-09-27T11:49:37.620Z,1389.38
2022-09-27T11:50:37.961Z,1546.88
2022-09-27T11:51:37.126Z,1698.75
2022-09-27T11:52:36.418Z,1620.00
2022-09-27T11:53:40.073Z,1496.25
2022-09-27T11:54:36.903Z,1575.00
2022-09-27T11:55:37.154Z,1642.50
2022-09-27T11:56:37.395Z,1642.50
2022-09-27T11:57:37.641Z,1518.75
2022-09-27T11:58:40.846Z,1496.25
2022-09-27T11:59:38.156Z,1462.50
2022-09-27T12:00:40.315Z,1445.62
2022-09-27T12:01:40.619Z,1338.75
2022-09-27T12:02:38.937Z,1260.00
2022-09-27T12:03:41.160Z,1164.38
2022-09-27T12:04:41.332Z,1170.00
2022-09-27T12:05:39.788Z,1209.38
2022-09-27T12:06:41.967Z,1260.00
2022-09-27T12:07:40.290Z,1316.25
2022-09-27T12:08:41.450Z,1383.75
2022-09-27T12:09:43.763Z,1490.62
2022-09-27T12:10:42.987Z,1614.38
2022-09-27T12:11:41.319Z,1800.00
2022-09-27T12:12:41.578Z,1631.25
2022-09-27T12:13:44.747Z,1991.25
2022-09-27T12:14:44.072Z,1957.50
2022-09-27T12:15:43.861Z,1783.12
2022-09-27T12:16:44.560Z,2064.38
2022-09-27T12:17:42.881Z,1873.12
2022-09-27T12:18:46.845Z,1485.00
2022-09-27T12:19:44.474Z,1760.62
2022-09-27T12:20:43.648Z,1231.88
2022-09-27T12:21:45.825Z,1738.12
2022-09-27T12:22:58.513Z,1288.12
2022-09-27T12:23:46.403Z,1485.00
2022-09-27T12:24:44.730Z,1181.25
2022-09-27T12:25:44.990Z,978.75
2022-09-27T12:26:47.170Z,776.25
2022-09-27T12:27:45.478Z,601.88
2022-09-27T12:28:45.767Z,472.50
2022-09-27T12:29:46.025Z,393.75
2022-09-27T12:30:48.211Z,360.00
2022-09-27T12:31:46.564Z,376.88
2022-09-27T12:32:46.792Z,433.12
2022-09-27T12:33:49.964Z,495.00
2022-09-27T12:34:47.305Z,523.12
2022-09-27T12:35:47.553Z,528.75
2022-09-27T12:36:47.810Z,523.12
2022-09-27T12:37:49.981Z,517.50
2022-09-27T12:38:49.333Z,495.00
2022-09-27T12:39:48.645Z,489.38
2022-09-27T12:40:48.919Z,495.00
2022-09-27T12:41:49.153Z,523.12
2022-09-27T12:42:51.361Z,568.12
2022-09-27T12:43:52.526Z,607.50
2022-09-27T12:44:51.871Z,646.88
2022-09-27T12:45:50.207Z,680.62
2022-09-27T12:46:50.515Z,691.88
2022-09-27T12:47:50.730Z,686.25
2022-09-27T12:48:53.892Z,675.00
2022-09-27T12:49:51.216Z,658.12
2022-09-27T12:50:51.475Z,646.88
2022-09-27T12:51:51.703Z,630.00